Gill, Massachusetts
Current Conditions -  °F | °C
As of 12:52 PM on Monday 24 Nov 2014 (Local Time) from KORE Reporting Station
Overcast Overcast  
Wind Chill: 62°   Ceiling: 1600
Heat Index: 62°   Visibility: 10mi
Dew Point: 59°   Wind: 13mph
Humidity: 90%   Direction: 170°S
Pressure: 29.6"   Gusts: NA
Location:  42.6787°N, 72.4874°W
Report Text: KORE 241752Z AUTO 17011KT 10SM OVC016 17/15 A2960 RMK AO2 SLP027 60039 T01670150 10167 20089 58027
Loading
Personal Weather Stations






























Interactive Weather Map New forecast layout! Learn more

10-Day Weather Forecast

Advertisements
Track Severe Weather on mobile